London, Minnesota
Current Conditions -  °F | °C
As of 10:51 PM on Monday 22 Dec 2014 (Local Time) from KAEL Reporting Station
Haze Haze  
Wind Chill: 26°   Ceiling: 200
Heat Index: 34°   Visibility: 1.5mi
Dew Point: 34°   Wind: 9mph
Humidity: 100%   Direction: 80°E
Pressure: 29.53"   Gusts: NA
Location:  43.5439°N, 93.1707°W
Report Text: KAEL 230451Z AUTO 08008KT 1 1/2SM BR OVC002 01/01 A2953 RMK AO2
Loading
Personal Weather Stations






























Interactive Weather Map New forecast layout! Learn more

10-Day Weather Forecast

Advertisements
Track Severe Weather on mobile